createdAt,value
2023-05-02T00:05:38.216Z,25.349
2023-05-02T00:20:39.972Z,25.025
2023-05-02T00:35:41.691Z,25.371
2023-05-02T00:50:43.530Z,24.866
2023-05-02T01:05:45.318Z,25.637
2023-05-02T01:20:47.092Z,25.467
2023-05-02T01:35:48.888Z,25.584
2023-05-02T01:50:50.629Z,25.627
2023-05-02T02:05:52.364Z,25.687
2023-05-02T02:20:54.146Z,26.008
2023-05-02T02:35:55.926Z,26.224
2023-05-02T02:50:57.649Z,26.339
2023-05-02T03:05:59.392Z,26.376
2023-05-02T03:21:01.115Z,25.956
2023-05-02T03:36:02.835Z,25.892
2023-05-02T03:51:04.644Z,26.219
2023-05-02T04:06:06.438Z,26.208
2023-05-02T04:21:08.267Z,26.252
2023-05-02T04:36:10.032Z,26.075
2023-05-02T04:51:11.859Z,25.534
2023-05-02T05:06:13.635Z,25.896
2023-05-02T05:21:15.363Z,26.282
2023-05-02T05:36:17.068Z,25.901
2023-05-02T05:51:18.795Z,25.552
2023-05-02T06:06:20.576Z,25.502
2023-05-02T06:21:22.310Z,25.383
2023-05-02T06:36:24.039Z,25.48
2023-05-02T06:51:25.812Z,25.736
2023-05-02T07:06:27.527Z,25.432
2023-05-02T07:21:29.332Z,25.046
2023-05-02T07:36:31.075Z,25.228
2023-05-02T07:51:32.836Z,25.135
2023-05-02T08:06:34.693Z,25.012
2023-05-02T08:21:36.553Z,25.109
2023-05-02T08:36:38.336Z,24.728
2023-05-02T08:51:41.336Z,24.951
2023-05-02T09:06:44.093Z,24.892
2023-05-02T09:21:45.888Z,24.823
2023-05-02T09:36:47.666Z,24.909
2023-05-02T09:51:49.422Z,24.785
2023-05-02T10:06:51.255Z,24.753
2023-05-02T10:21:53.133Z,24.513
2023-05-02T10:36:54.833Z,24.763
2023-05-02T10:51:56.591Z,24.836
2023-05-02T11:06:58.389Z,24.756
2023-05-02T11:22:00.196Z,24.755
2023-05-02T11:37:01.946Z,24.973
2023-05-02T11:52:03.637Z,24.795
2023-05-02T12:07:05.473Z,25.159
2023-05-02T12:22:07.384Z,24.808
2023-05-02T12:37:09.139Z,24.659
2023-05-02T12:52:10.883Z,24.541
2023-05-02T13:07:12.607Z,25.249
2023-05-02T13:22:14.412Z,25.22
2023-05-02T13:37:16.126Z,24.802
2023-05-02T13:52:17.834Z,24.726
2023-05-02T14:07:19.601Z,24.495
2023-05-02T14:22:21.352Z,25.206
2023-05-02T14:37:23.109Z,25.703
2023-05-02T14:52:24.862Z,25.483
2023-05-02T15:07:26.810Z,25.895
2023-05-02T15:22:28.714Z,26.585
2023-05-02T15:37:30.442Z,26.972
2023-05-02T15:52:32.179Z,26.776
2023-05-02T16:07:33.925Z,27.358
2023-05-02T16:22:35.742Z,26.699
2023-05-02T16:37:37.540Z,25.822
2023-05-02T16:52:39.225Z,26.913
2023-05-02T17:07:40.912Z,27.27
2023-05-02T17:22:42.654Z,27.456
2023-05-02T17:37:44.383Z,28
2023-05-02T17:52:46.114Z,25.762
2023-05-02T18:07:47.822Z,26.765
2023-05-02T18:22:49.656Z,26.37
2023-05-02T18:37:51.401Z,26.888
2023-05-02T18:52:53.159Z,26.77
2023-05-02T19:07:54.904Z,26.987
2023-05-02T19:23:14.628Z,26.766
2023-05-02T19:38:20.447Z,26.578
2023-05-02T19:53:22.206Z,25.967
2023-05-02T20:08:24.721Z,26.15
2023-05-02T20:23:26.593Z,26.483
2023-05-02T20:38:28.319Z,26.549
2023-05-02T20:53:30.063Z,26.948
2023-05-02T21:08:31.849Z,26.939
2023-05-02T21:23:33.567Z,26.886
2023-05-02T21:38:35.298Z,26.885
2023-05-02T21:53:37.057Z,26.867
2023-05-02T22:08:38.832Z,27.004
2023-05-02T22:23:40.512Z,27.223
2023-05-02T22:38:42.237Z,27.172
2023-05-02T22:53:43.921Z,27.242
2023-05-02T23:08:45.686Z,26.915
2023-05-02T23:23:47.441Z,26.989
2023-05-02T23:38:49.125Z,27.115
2023-05-02T23:53:50.804Z,26.179
